Time;durP1;ratioP1;P1;durP2;ratioP2;P2;SDS_P1;SDS_P2;PMS_P1;PMS_P2;Temp;Humidity;BMP_temperature;BMP_pressure;BME280_temperature;BME280_humidity;BME280_pressure;Samples;Min_cycle;Max_cycle;Signal;HPM_P1;HPM_P2
2021/04/16 00:00:21;;;;;;;6.70;5.57;;;7.00;99.90;;;;;;5015918;28;20072;-75
2021/04/16 00:02:47;;;;;;;9.02;6.03;;;7.00;99.90;;;;;;5016233;28;20025;-75
2021/04/16 00:05:13;;;;;;;6.90;6.13;;;7.00;99.90;;;;;;5017724;28;20029;-74
2021/04/16 00:07:39;;;;;;;8.77;6.40;;;7.10;99.90;;;;;;5015590;28;20026;-76
2021/04/16 00:10:12;;;;;;;9.70;7.15;;;7.10;99.90;;;;;;5017174;28;20029;-75
2021/04/16 00:12:37;;;;;;;8.70;5.72;;;7.20;99.90;;;;;;5022137;28;20025;-76
2021/04/16 00:15:12;;;;;;;6.20;5.63;;;7.20;99.90;;;;;;5015728;28;20525;-74
2021/04/16 00:17:38;;;;;;;6.53;5.63;;;7.20;99.90;;;;;;5002750;28;20036;-75
2021/04/16 00:20:06;;;;;;;7.35;5.43;;;7.10;99.90;;;;;;5019846;28;20021;-75
2021/04/16 00:22:33;;;;;;;8.82;6.88;;;7.10;99.90;;;;;;5017187;28;20037;-75
2021/04/16 00:24:59;;;;;;;9.60;5.55;;;7.10;99.90;;;;;;5020302;28;20060;-74
2021/04/16 00:27:24;;;;;;;12.18;5.80;;;7.10;99.90;;;;;;5018584;28;20053;-74
2021/04/16 00:29:50;;;;;;;20.42;9.00;;;7.10;99.90;;;;;;5023500;28;20102;-74
2021/04/16 00:32:16;;;;;;;5.45;4.32;;;7.00;99.90;;;;;;5024972;28;20078;-74
2021/04/16 00:34:41;;;;;;;7.82;6.13;;;7.00;99.90;;;;;;5015878;28;20098;-73
2021/04/16 00:37:07;;;;;;;7.05;5.93;;;7.00;99.90;;;;;;5016623;28;20431;-76
2021/04/16 00:39:33;;;;;;;9.43;6.40;;;7.10;99.90;;;;;;5022892;28;20034;-74
2021/04/16 00:41:58;;;;;;;8.88;6.65;;;7.00;99.90;;;;;;5012085;28;20365;-77
2021/04/16 00:44:24;;;;;;;6.80;6.10;;;7.00;99.90;;;;;;5020700;28;20033;-75
2021/04/16 00:47:00;;;;;;;11.95;6.63;;;7.00;99.90;;;;;;5022352;28;20061;-75
2021/04/16 00:49:29;;;;;;;8.68;6.18;;;7.10;99.90;;;;;;5005520;28;20550;-75
2021/04/16 00:52:00;;;;;;;8.48;6.72;;;7.00;99.90;;;;;;5010889;28;20060;-75
2021/04/16 00:54:37;;;;;;;7.70;6.25;;;7.00;99.90;;;;;;5009140;28;20045;-74
2021/04/16 00:57:04;;;;;;;10.93;5.60;;;7.00;99.90;;;;;;5011519;28;20036;-75
2021/04/16 00:59:33;;;;;;;7.45;5.80;;;7.10;99.90;;;;;;5011224;28;20061;-75
2021/04/16 01:02:01;;;;;;;7.68;5.68;;;7.20;99.90;;;;;;4996719;28;20038;-75
2021/04/16 01:04:28;;;;;;;7.45;5.45;;;7.30;99.90;;;;;;4991827;28;20599;-75
2021/04/16 01:06:54;;;;;;;6.63;5.38;;;7.40;99.90;;;;;;4992634;28;20431;-74
2021/04/16 01:09:20;;;;;;;8.40;5.60;;;7.40;99.90;;;;;;5010881;28;20038;-74
2021/04/16 01:11:46;;;;;;;6.38;4.97;;;7.40;99.90;;;;;;5010918;28;20435;-73
2021/04/16 01:14:13;;;;;;;8.90;6.03;;;7.30;99.90;;;;;;5009603;28;20022;-73
2021/04/16 01:16:39;;;;;;;7.97;5.47;;;7.20;99.90;;;;;;5011173;28;20491;-74
2021/04/16 01:19:14;;;;;;;6.38;5.70;;;7.30;99.90;;;;;;5011406;28;20073;-75
2021/04/16 01:21:51;;;;;;;8.52;4.85;;;7.40;99.90;;;;;;4982901;28;20045;-75
2021/04/16 01:24:29;;;;;;;5.80;5.28;;;7.50;99.90;;;;;;5008644;28;20087;-75
2021/04/16 01:26:55;;;;;;;9.98;5.53;;;7.60;99.90;;;;;;5011170;28;20108;-75
2021/04/16 01:29:22;;;;;;;6.57;5.97;;;7.60;99.90;;;;;;5011150;28;20026;-75
2021/04/16 01:31:49;;;;;;;9.23;4.78;;;7.60;99.90;;;;;;4980776;28;20034;-75
2021/04/16 01:34:28;;;;;;;13.07;4.65;;;7.70;99.90;;;;;;5006963;28;20018;-75
2021/04/16 01:36:56;;;;;;;12.65;4.35;;;7.70;99.90;;;;;;4993443;28;20133;-75
2021/04/16 01:39:26;;;;;;;7.53;4.78;;;7.70;99.90;;;;;;5011041;28;20041;-76
2021/04/16 01:41:52;;;;;;;6.78;4.35;;;7.70;99.90;;;;;;4991626;28;20034;-77
2021/04/16 01:44:22;;;;;;;6.93;4.70;;;7.80;99.90;;;;;;5010993;28;20057;-74
2021/04/16 01:47:15;;;;;;;6.18;5.20;;;7.80;99.90;;;;;;5002717;28;20030;-75
2021/04/16 01:49:49;;;;;;;4.78;4.38;;;7.70;99.90;;;;;;5007490;28;20466;-75
2021/04/16 01:52:20;;;;;;;7.10;4.68;;;7.70;99.90;;;;;;5010402;28;20584;-74
2021/04/16 01:54:50;;;;;;;4.88;4.35;;;7.70;99.90;;;;;;5010967;28;20030;-75
2021/04/16 01:57:20;;;;;;;6.65;4.88;;;7.70;99.90;;;;;;5000990;28;20492;-75
2021/04/16 01:59:48;;;;;;;5.47;4.03;;;7.70;99.90;;;;;;4994057;28;20184;-76
2021/04/16 02:02:18;;;;;;;5.13;3.30;;;7.80;99.90;;;;;;5010277;28;20731;-75
2021/04/16 02:04:43;;;;;;;8.68;5.18;;;7.80;99.90;;;;;;5011749;28;20026;-74
2021/04/16 02:07:10;;;;;;;11.35;4.82;;;7.70;99.90;;;;;;5014404;28;20026;-74
2021/04/16 02:09:38;;;;;;;8.52;3.80;;;7.70;99.90;;;;;;4996879;28;20133;-76
2021/04/16 02:12:06;;;;;;;5.38;4.20;;;7.70;99.90;;;;;;5014567;28;20046;-74
2021/04/16 02:14:33;;;;;;;3.33;3.00;;;7.70;99.90;;;;;;5014775;28;20026;-75
2021/04/16 02:17:07;;;;;;;11.40;5.25;;;7.70;99.90;;;;;;5016244;28;20033;-75
2021/04/16 02:19:33;;;;;;;7.40;4.15;;;7.70;99.90;;;;;;5017775;28;20392;-76
2021/04/16 02:21:59;;;;;;;4.93;4.00;;;7.70;99.90;;;;;;5014481;28;20386;-75
2021/04/16 02:24:25;;;;;;;12.27;4.25;;;7.70;99.90;;;;;;5014198;28;20114;-74
2021/04/16 02:26:51;;;;;;;6.65;4.13;;;7.70;99.90;;;;;;5012487;28;20033;-74
2021/04/16 02:29:20;;;;;;;6.15;3.80;;;7.70;99.90;;;;;;5014152;28;20026;-75
2021/04/16 02:31:46;;;;;;;7.78;4.00;;;7.70;99.90;;;;;;5014278;28;20033;-74
2021/04/16 02:34:14;;;;;;;8.05;4.45;;;7.70;99.90;;;;;;5014272;28;20018;-74
2021/04/16 02:36:40;;;;;;;5.93;4.50;;;7.70;99.90;;;;;;4999532;28;20046;-75
2021/04/16 02:39:07;;;;;;;6.65;4.13;;;7.60;99.90;;;;;;4994738;28;20587;-73
2021/04/16 02:41:33;;;;;;;11.43;4.63;;;7.60;99.90;;;;;;4977994;28;20083;-75
2021/04/16 02:43:59;;;;;;;6.60;3.97;;;7.50;99.90;;;;;;4994701;28;20030;-75
2021/04/16 02:46:25;;;;;;;8.52;5.00;;;7.50;99.90;;;;;;4994445;28;20037;-74
2021/04/16 02:48:51;;;;;;;5.20;4.70;;;7.50;99.90;;;;;;5009912;28;20369;-74
2021/04/16 02:51:17;;;;;;;6.20;4.70;;;7.50;99.90;;;;;;5002637;28;20022;-75
2021/04/16 02:53:42;;;;;;;10.27;4.38;;;7.50;99.90;;;;;;5013332;28;20033;-73
2021/04/16 02:56:09;;;;;;;11.68;7.13;;;7.50;99.90;;;;;;4996640;28;20108;-74
2021/04/16 02:58:35;;;;;;;8.38;4.82;;;7.50;99.90;;;;;;5014238;28;20022;-74
2021/04/16 03:01:00;;;;;;;6.22;4.80;;;7.50;99.90;;;;;;5007816;28;20391;-75
2021/04/16 03:03:26;;;;;;;7.30;4.35;;;7.50;99.90;;;;;;4994247;28;20038;-74
2021/04/16 03:05:52;;;;;;;9.20;4.90;;;7.50;99.90;;;;;;4994726;28;20062;-75
2021/04/16 03:08:20;;;;;;;7.75;3.85;;;7.50;99.90;;;;;;4994132;28;20026;-75
2021/04/16 03:10:47;;;;;;;9.55;4.68;;;7.60;99.90;;;;;;4994262;28;20042;-73
2021/04/16 03:13:13;;;;;;;5.22;3.97;;;7.50;99.90;;;;;;5000339;28;20026;-74
2021/04/16 03:15:38;;;;;;;6.15;4.00;;;7.50;99.90;;;;;;5010103;28;20022;-75
2021/04/16 03:18:04;;;;;;;8.15;4.75;;;7.50;99.90;;;;;;4994691;28;20576;-77
2021/04/16 03:20:30;;;;;;;6.55;3.42;;;7.50;99.90;;;;;;4995109;28;20035;-75
2021/04/16 03:22:56;;;;;;;5.68;3.92;;;7.40;99.90;;;;;;4994393;28;20106;-74
2021/04/16 03:25:22;;;;;;;7.38;4.15;;;7.40;99.90;;;;;;4994053;28;20073;-74
2021/04/16 03:27:48;;;;;;;11.63;4.18;;;7.30;99.90;;;;;;4994249;28;20651;-76
2021/04/16 03:30:18;;;;;;;4.45;4.05;;;7.40;99.90;;;;;;4994038;28;20097;-75
2021/04/16 03:32:44;;;;;;;12.35;4.60;;;7.40;99.90;;;;;;4976456;28;20448;-73
2021/04/16 03:35:11;;;;;;;6.32;4.30;;;7.30;99.90;;;;;;5009172;28;20076;-75
2021/04/16 03:37:37;;;;;;;12.55;4.47;;;7.30;99.90;;;;;;5013395;28;20053;-75
2021/04/16 03:40:04;;;;;;;5.82;3.88;;;7.30;99.90;;;;;;5013914;28;20026;-74
2021/04/16 03:42:30;;;;;;;6.93;4.20;;;7.20;99.90;;;;;;4995146;28;20061;-73
2021/04/16 03:44:56;;;;;;;4.60;3.60;;;7.20;99.90;;;;;;5001314;28;20023;-75
2021/04/16 03:47:22;;;;;;;5.68;4.05;;;7.20;99.90;;;;;;4993753;28;20141;-75
2021/04/16 03:49:47;;;;;;;8.25;4.30;;;7.20;99.90;;;;;;4987889;28;20551;-74
2021/04/16 03:52:13;;;;;;;6.10;4.45;;;7.10;99.90;;;;;;5013912;28;20018;-74
2021/04/16 03:54:39;;;;;;;6.90;5.30;;;7.10;99.90;;;;;;5013012;28;20034;-74
2021/04/16 03:57:08;;;;;;;6.78;6.13;;;7.00;99.90;;;;;;5013576;28;20048;-74
2021/04/16 03:59:35;;;;;;;7.25;4.50;;;7.10;99.90;;;;;;5011530;28;20086;-74
2021/04/16 04:02:01;;;;;;;7.60;3.90;;;7.10;99.90;;;;;;4994365;28;20030;-73
2021/04/16 04:04:26;;;;;;;5.40;3.95;;;7.10;99.90;;;;;;5014538;28;20028;-74
2021/04/16 04:06:52;;;;;;;4.47;4.07;;;7.10;99.90;;;;;;5013669;28;20026;-74
2021/04/16 04:09:18;;;;;;;7.90;5.88;;;7.10;99.90;;;;;;5012657;28;20430;-74
2021/04/16 04:11:44;;;;;;;7.18;5.82;;;7.00;99.90;;;;;;5011842;28;20101;-76
2021/04/16 04:14:10;;;;;;;8.23;5.60;;;7.10;99.90;;;;;;5012559;28;20065;-75
2021/04/16 04:17:01;;;;;;;7.40;3.97;;;7.00;99.90;;;;;;5012104;28;20037;-76
2021/04/16 04:19:29;;;;;;;4.15;3.75;;;7.00;99.90;;;;;;5004660;28;20033;-74
2021/04/16 04:21:56;;;;;;;11.07;4.93;;;7.00;99.90;;;;;;4975437;28;20045;-74
2021/04/16 04:24:22;;;;;;;6.88;4.40;;;7.00;99.90;;;;;;4992384;28;20081;-74
2021/04/16 04:26:49;;;;;;;7.10;4.82;;;7.00;99.90;;;;;;4992543;28;20080;-74
2021/04/16 04:29:19;;;;;;;6.55;5.07;;;7.00;99.90;;;;;;5005589;28;20109;-75
2021/04/16 04:31:47;;;;;;;4.78;4.07;;;7.00;99.90;;;;;;5012171;28;20029;-75
2021/04/16 04:34:20;;;;;;;10.73;5.05;;;7.00;99.90;;;;;;5012208;28;20763;-75
2021/04/16 04:36:47;;;;;;;7.90;4.70;;;7.00;99.90;;;;;;5011550;28;20030;-75
2021/04/16 04:39:13;;;;;;;10.07;4.60;;;7.00;99.90;;;;;;5012732;28;20105;-76
2021/04/16 04:41:40;;;;;;;4.45;3.83;;;7.00;99.90;;;;;;5012476;28;20100;-76
2021/04/16 04:44:07;;;;;;;8.73;4.65;;;7.10;99.90;;;;;;4995030;28;20030;-74
2021/04/16 04:46:33;;;;;;;4.90;4.35;;;7.00;99.90;;;;;;5006540;28;20472;-75
2021/04/16 04:48:58;;;;;;;11.10;5.55;;;7.10;99.90;;;;;;4998125;28;20388;-75
2021/04/16 04:51:24;;;;;;;8.18;5.68;;;7.10;99.90;;;;;;5011492;28;20026;-75
2021/04/16 04:53:50;;;;;;;7.47;5.03;;;7.10;99.90;;;;;;5007057;28;20508;-75
2021/04/16 04:56:16;;;;;;;6.68;4.75;;;7.20;99.90;;;;;;5002087;28;20365;-76
2021/04/16 04:58:41;;;;;;;6.13;4.53;;;7.20;99.90;;;;;;5002265;28;20033;-75
2021/04/16 05:01:07;;;;;;;7.07;5.25;;;7.20;99.90;;;;;;5008206;28;20057;-76
2021/04/16 05:03:33;;;;;;;12.20;4.63;;;7.20;99.90;;;;;;5011627;28;20037;-75
2021/04/16 05:05:59;;;;;;;6.38;4.07;;;7.30;99.90;;;;;;5011631;28;20439;-76
2021/04/16 05:08:24;;;;;;;6.88;4.78;;;7.40;99.90;;;;;;5006748;28;20033;-74
2021/04/16 05:10:50;;;;;;;6.03;4.22;;;7.40;99.90;;;;;;5002351;28;20474;-76
2021/04/16 05:13:16;;;;;;;6.60;4.88;;;7.50;99.90;;;;;;4992869;28;20038;-76
2021/04/16 05:15:41;;;;;;;13.05;6.05;;;7.50;99.90;;;;;;4991904;28;20080;-76
2021/04/16 05:18:07;;;;;;;8.07;5.60;;;7.40;99.90;;;;;;4991403;28;20631;-75
2021/04/16 05:20:33;;;;;;;9.25;4.53;;;7.40;99.90;;;;;;4991496;28;20043;-76
2021/04/16 05:22:59;;;;;;;6.57;4.85;;;7.50;99.90;;;;;;4991651;28;20023;-75
2021/04/16 05:25:24;;;;;;;8.27;5.20;;;7.60;99.90;;;;;;4975519;28;20488;-75
2021/04/16 05:27:50;;;;;;;8.07;5.15;;;7.70;99.90;;;;;;4974098;28;20034;-74
2021/04/16 05:30:16;;;;;;;8.27;4.78;;;7.70;99.90;;;;;;5003382;28;20476;-75
2021/04/16 05:32:44;;;;;;;8.95;4.93;;;7.80;99.90;;;;;;5011449;28;20029;-76
2021/04/16 05:35:10;;;;;;;8.98;4.88;;;7.80;99.90;;;;;;5011614;28;20109;-75
2021/04/16 05:37:37;;;;;;;5.95;4.25;;;7.90;99.90;;;;;;5010728;28;20030;-75
2021/04/16 05:40:04;;;;;;;7.00;4.95;;;7.90;99.90;;;;;;4992811;28;20036;-75
2021/04/16 05:42:30;;;;;;;12.80;4.88;;;8.00;99.90;;;;;;5010133;28;20029;-75
2021/04/16 05:44:59;;;;;;;7.18;4.30;;;8.00;99.90;;;;;;4993719;28;20065;-74
2021/04/16 05:47:25;;;;;;;7.50;4.85;;;8.10;99.90;;;;;;5009855;28;20226;-73
2021/04/16 05:49:51;;;;;;;7.65;4.47;;;8.10;99.90;;;;;;5003559;28;20556;-75
2021/04/16 05:52:17;;;;;;;6.85;4.43;;;8.10;99.90;;;;;;4973543;28;20019;-75
2021/04/16 05:54:43;;;;;;;7.07;5.13;;;8.20;99.90;;;;;;4995124;28;20022;-76
2021/04/16 05:57:08;;;;;;;9.95;6.80;;;8.30;99.90;;;;;;5011016;28;20030;-74
2021/04/16 05:59:34;;;;;;;7.57;5.40;;;8.40;99.90;;;;;;5009011;28;20026;-70
2021/04/16 06:02:00;;;;;;;5.13;4.57;;;8.50;99.90;;;;;;5010384;28;20030;-72
2021/04/16 06:04:27;;;;;;;11.05;5.78;;;8.50;99.90;;;;;;5010492;28;20048;-72
2021/04/16 06:06:53;;;;;;;6.75;4.15;;;8.50;99.90;;;;;;5008690;28;20037;-69
2021/04/16 06:09:20;;;;;;;7.85;4.57;;;8.60;99.90;;;;;;5010289;28;20029;-71
2021/04/16 06:11:46;;;;;;;13.02;5.10;;;8.60;99.90;;;;;;5000378;28;20077;-70
2021/04/16 06:14:12;;;;;;;11.45;5.72;;;8.60;99.90;;;;;;4990961;28;20026;-72
2021/04/16 06:16:38;;;;;;;9.73;5.57;;;8.70;99.90;;;;;;4990915;28;20508;-71
2021/04/16 06:19:05;;;;;;;8.38;5.22;;;8.80;99.90;;;;;;4990959;28;20030;-70
2021/04/16 06:21:31;;;;;;;8.68;4.60;;;8.90;99.90;;;;;;4990685;28;20078;-69
2021/04/16 06:23:57;;;;;;;9.65;4.25;;;9.00;99.90;;;;;;4990751;28;20747;-71
2021/04/16 06:26:24;;;;;;;11.55;6.03;;;9.10;99.90;;;;;;4973401;28;20494;-72
2021/04/16 06:28:49;;;;;;;9.18;4.90;;;9.30;99.90;;;;;;4991582;28;20026;-74
2021/04/16 06:31:17;;;;;;;6.50;4.90;;;9.30;99.90;;;;;;4989354;28;20037;-75
2021/04/16 06:33:43;;;;;;;6.82;5.03;;;9.40;99.90;;;;;;4990972;28;20029;-71
2021/04/16 06:36:12;;;;;;;6.63;5.38;;;9.40;99.90;;;;;;4997998;28;20022;-71
2021/04/16 06:38:40;;;;;;;6.05;4.68;;;9.60;99.90;;;;;;5010194;28;20022;-74
2021/04/16 06:41:23;;;;;;;9.90;5.65;;;9.60;99.90;;;;;;4992318;28;20118;-71
2021/04/16 06:43:56;;;;;;;6.93;4.78;;;9.70;99.90;;;;;;5009979;28;20029;-72
2021/04/16 06:46:34;;;;;;;10.77;4.40;;;9.70;99.90;;;;;;5009570;28;20080;-73
2021/04/16 06:49:09;;;;;;;11.50;5.45;;;9.80;99.90;;;;;;5009653;28;20057;-70
2021/04/16 06:51:41;;;;;;;13.55;7.57;;;9.90;99.90;;;;;;5010226;28;20026;-73
2021/04/16 06:54:13;;;;;;;6.88;4.57;;;9.90;99.90;;;;;;5012031;28;20495;-70
2021/04/16 06:56:43;;;;;;;12.23;4.30;;;10.10;99.90;;;;;;4995317;28;20113;-71
2021/04/16 06:59:31;;;;;;;6.13;4.55;;;10.20;99.90;;;;;;5013781;28;20022;-71
2021/04/16 07:02:03;;;;;;;10.85;4.75;;;10.20;99.90;;;;;;5008181;28;20047;-72
2021/04/16 07:04:47;;;;;;;8.52;5.28;;;10.30;99.90;;;;;;4994489;28;20053;-73
2021/04/16 07:07:34;;;;;;;4.25;3.70;;;10.30;99.90;;;;;;4994203;28;20128;-72
2021/04/16 07:10:20;;;;;;;9.98;4.30;;;10.50;99.90;;;;;;4976434;28;20032;-72
2021/04/16 07:12:47;;;;;;;7.25;4.25;;;10.60;99.90;;;;;;4996216;28;20038;-72
2021/04/16 07:15:22;;;;;;;8.25;5.20;;;10.60;99.90;;;;;;4994974;28;20161;-73
2021/04/16 07:17:49;;;;;;;5.22;3.92;;;10.70;99.90;;;;;;4994328;28;20027;-71
2021/04/16 07:20:22;;;;;;;6.55;4.53;;;10.70;99.90;;;;;;4976428;28;20023;-69
2021/04/16 07:22:56;;;;;;;8.25;4.95;;;10.80;99.90;;;;;;4993664;28;20054;-73
2021/04/16 07:25:35;;;;;;;6.32;4.53;;;10.90;99.90;;;;;;4994617;28;20045;-70
2021/04/16 07:28:07;;;;;;;5.60;5.00;;;11.20;99.90;;;;;;4993331;28;20108;-71
2021/04/16 07:30:45;;;;;;;9.23;5.18;;;11.10;99.90;;;;;;5001393;28;20072;-70
2021/04/16 07:33:26;;;;;;;7.60;5.07;;;11.00;99.90;;;;;;4994383;28;20080;-71
2021/04/16 07:35:53;;;;;;;5.50;4.10;;;11.10;99.90;;;;;;4993061;28;20522;-71
2021/04/16 07:38:32;;;;;;;6.22;4.70;;;11.20;99.90;;;;;;4993153;28;20038;-72
2021/04/16 07:41:42;;;;;;;9.25;4.03;;;11.20;99.90;;;;;;4993006;28;20147;-71
2021/04/16 07:44:37;;;;;;;6.05;4.25;;;11.20;99.90;;;;;;4921360;29;20083;-69
2021/04/16 07:47:12;;;;;;;10.98;3.88;;;11.20;99.70;;;;;;4932997;29;20032;-72
2021/04/16 07:49:51;;;;;;;5.20;4.10;;;11.40;99.80;;;;;;4978873;28;20042;-76
2021/04/16 07:52:38;;;;;;;5.30;3.30;;;11.40;99.40;;;;;;4993068;28;20061;-70
2021/04/16 07:55:24;;;;;;;4.95;4.05;;;11.50;98.90;;;;;;4976031;28;20030;-76
2021/04/16 07:57:53;;;;;;;7.68;3.80;;;11.50;98.80;;;;;;4993525;28;20097;-74
2021/04/16 08:00:36;;;;;;;4.43;4.03;;;11.70;98.50;;;;;;4993234;28;20023;-71
2021/04/16 08:03:18;;;;;;;5.63;4.25;;;11.70;98.20;;;;;;5006437;28;20476;-73
2021/04/16 08:05:47;;;;;;;9.05;3.78;;;11.70;96.90;;;;;;5012919;28;20640;-71
2021/04/16 08:08:21;;;;;;;5.38;3.90;;;11.80;96.30;;;;;;5013131;28;20037;-72
2021/04/16 08:11:04;;;;;;;7.05;4.60;;;11.70;96.70;;;;;;5007433;28;20024;-71
2021/04/16 08:13:35;;;;;;;8.93;3.33;;;11.90;97.60;;;;;;5012517;28;20061;-72
2021/04/16 08:16:20;;;;;;;5.38;3.83;;;11.90;97.10;;;;;;5002926;28;20023;-73
2021/04/16 08:19:07;;;;;;;5.78;3.58;;;12.10;96.90;;;;;;4993000;28;20034;-70
2021/04/16 08:21:43;;;;;;;5.63;4.07;;;12.30;96.90;;;;;;4992739;28;20489;-72
2021/04/16 08:24:21;;;;;;;4.47;3.47;;;12.30;96.20;;;;;;4992668;28;20084;-72
2021/04/16 08:27:06;;;;;;;5.68;4.57;;;12.40;95.60;;;;;;4993761;28;20034;-71
2021/04/16 08:29:42;;;;;;;6.57;4.50;;;12.60;96.40;;;;;;4992688;28;20037;-73
2021/04/16 08:32:12;;;;;;;5.72;3.88;;;12.70;95.70;;;;;;4980580;28;20022;-73
2021/04/16 08:34:46;;;;;;;4.90;3.60;;;12.70;95.60;;;;;;5011759;28;20077;-70
2021/04/16 08:37:19;;;;;;;7.75;3.97;;;12.70;94.40;;;;;;5011792;28;20476;-74
2021/04/16 08:39:45;;;;;;;5.97;2.92;;;12.40;93.70;;;;;;5012155;28;20033;-74
2021/04/16 08:42:31;;;;;;;5.25;4.75;;;12.30;93.90;;;;;;5012079;28;20033;-74
2021/04/16 08:45:12;;;;;;;6.85;3.78;;;12.40;94.60;;;;;;5010850;28;20026;-73
2021/04/16 08:47:47;;;;;;;5.18;4.03;;;12.50;94.10;;;;;;5010671;28;20488;-72
2021/04/16 08:50:14;;;;;;;3.75;3.10;;;12.50;93.50;;;;;;4999773;28;20045;-73
2021/04/16 08:53:06;;;;;;;6.40;4.07;;;12.60;94.10;;;;;;5007756;28;20044;-74
2021/04/16 08:55:41;;;;;;;5.50;3.72;;;12.70;95.70;;;;;;4970792;28;20034;-73
2021/04/16 08:58:29;;;;;;;4.50;3.33;;;12.90;95.40;;;;;;4978010;28;20022;-71
2021/04/16 09:01:28;;;;;;;8.02;3.72;;;13.00;94.30;;;;;;5011583;28;20030;-74
2021/04/16 09:03:56;;;;;;;4.82;3.08;;;13.00;94.00;;;;;;5013771;28;20048;-75
2021/04/16 09:06:25;;;;;;;6.68;3.90;;;13.10;94.10;;;;;;5012707;28;20530;-72
2021/04/16 09:08:52;;;;;;;8.02;4.15;;;13.00;93.90;;;;;;5011325;28;20404;-71
2021/04/16 09:11:43;;;;;;;3.88;3.13;;;12.90;93.90;;;;;;4985066;28;20047;-72
2021/04/16 09:14:32;;;;;;;4.32;3.85;;;12.90;93.80;;;;;;5000977;28;20018;-70
2021/04/16 09:17:08;;;;;;;6.15;3.88;;;12.80;93.30;;;;;;5000938;28;20033;-70
2021/04/16 09:19:34;;;;;;;7.93;4.43;;;12.70;94.30;;;;;;4974588;28;20046;-71
2021/04/16 09:22:05;;;;;;;8.95;5.85;;;12.70;95.50;;;;;;4991918;28;20410;-70
2021/04/16 09:24:53;;;;;;;7.40;4.68;;;12.70;96.00;;;;;;4991717;28;20026;-75
2021/04/16 09:27:27;;;;;;;7.20;3.97;;;12.60;94.80;;;;;;4991930;28;20026;-72
2021/04/16 09:29:59;;;;;;;8.32;4.07;;;12.60;94.80;;;;;;4991994;28;20034;-72
2021/04/16 09:32:34;;;;;;;11.02;4.53;;;12.60;95.10;;;;;;4990698;28;20149;-74
2021/04/16 09:35:02;;;;;;;5.90;4.18;;;12.70;94.60;;;;;;4991422;28;20037;-71
2021/04/16 09:37:34;;;;;;;10.60;4.72;;;12.70;94.90;;;;;;4991571;28;20440;-74
2021/04/16 09:40:15;;;;;;;5.35;3.60;;;12.70;94.60;;;;;;4999675;28;20018;-75
2021/04/16 09:42:49;;;;;;;6.72;3.25;;;12.90;94.40;;;;;;4993436;28;20129;-72
2021/04/16 09:45:30;;;;;;;6.95;3.60;;;12.90;93.60;;;;;;5011156;28;20029;-72
2021/04/16 09:48:02;;;;;;;8.20;3.92;;;12.80;94.80;;;;;;4993360;28;20026;-75
2021/04/16 09:50:38;;;;;;;7.88;4.18;;;12.90;95.00;;;;;;5010724;28;20022;-74
2021/04/16 09:53:19;;;;;;;5.90;3.50;;;12.90;95.50;;;;;;5000902;28;20026;-72
2021/04/16 09:56:06;;;;;;;6.25;3.45;;;12.80;94.10;;;;;;5000320;28;20376;-77
2021/04/16 09:58:32;;;;;;;7.10;4.20;;;12.80;94.50;;;;;;4997959;28;20120;-73
2021/04/16 10:00:58;;;;;;;14.02;3.42;;;12.80;94.70;;;;;;4993193;28;20049;-73
2021/04/16 10:03:33;;;;;;;7.15;3.97;;;12.90;96.10;;;;;;5010234;28;20415;-72
2021/04/16 10:06:13;;;;;;;9.15;3.80;;;12.80;94.40;;;;;;5010248;28;20053;-75
2021/04/16 10:08:43;;;;;;;6.65;2.80;;;12.90;96.40;;;;;;5011804;28;20025;-73
2021/04/16 10:11:09;;;;;;;7.82;3.50;;;12.90;97.10;;;;;;5011801;28;20036;-74
2021/04/16 10:13:39;;;;;;;7.22;3.05;;;12.90;95.80;;;;;;5011747;28;20436;-72
2021/04/16 10:16:18;;;;;;;5.72;3.38;;;12.90;95.30;;;;;;5011923;28;20064;-76
2021/04/16 10:18:44;;;;;;;8.57;3.70;;;12.80;95.50;;;;;;5011415;28;20056;-75
2021/04/16 10:21:16;;;;;;;4.63;3.65;;;12.80;96.30;;;;;;5001716;28;20038;-73
2021/04/16 10:23:51;;;;;;;6.32;3.45;;;12.90;95.00;;;;;;4991145;28;20441;-74
2021/04/16 12:39:42;;;;;;;5.68;3.45;;;13.60;98.80;;;;;;4933325;29;20051;-76
2021/04/16 12:42:09;;;;;;;7.22;3.10;;;13.60;99.90;;;;;;4961147;28;20056;-75
2021/04/16 12:44:39;;;;;;;5.32;3.53;;;13.40;99.90;;;;;;5011854;28;20026;-76
2021/04/16 12:47:11;;;;;;;8.25;4.15;;;13.40;99.90;;;;;;5012002;28;20412;-74
2021/04/16 12:49:37;;;;;;;3.88;2.83;;;13.30;99.90;;;;;;5011869;28;20034;-75
2021/04/16 12:52:05;;;;;;;4.40;2.72;;;13.30;99.90;;;;;;5011227;28;20087;-74
2021/04/16 12:54:37;;;;;;;5.65;2.80;;;13.30;99.90;;;;;;5011859;28;20036;-75
2021/04/16 12:57:04;;;;;;;5.80;3.40;;;13.20;99.90;;;;;;5011646;28;20025;-76
2021/04/16 12:59:30;;;;;;;7.13;3.45;;;13.40;99.90;;;;;;5011865;28;20072;-76
2021/04/16 13:01:55;;;;;;;9.60;4.97;;;13.50;99.90;;;;;;5011598;28;20468;-74
2021/04/16 13:04:25;;;;;;;5.63;3.53;;;13.50;99.90;;;;;;5011705;28;20026;-74
2021/04/16 13:06:54;;;;;;;11.80;3.28;;;13.60;99.90;;;;;;5011991;28;20596;-75
2021/04/16 13:09:20;;;;;;;9.07;3.22;;;13.50;99.90;;;;;;4993879;28;20468;-71
2021/04/16 13:11:48;;;;;;;5.47;2.58;;;13.60;99.90;;;;;;5011160;28;20504;-72
2021/04/16 13:14:15;;;;;;;4.65;3.10;;;13.40;99.90;;;;;;5011908;28;20032;-72
2021/04/16 13:16:40;;;;;;;17.25;5.30;;;13.40;99.90;;;;;;5011553;28;20029;-72
2021/04/16 13:19:11;;;;;;;6.88;3.38;;;13.30;99.90;;;;;;5012343;28;20087;-72
2021/04/16 13:21:42;;;;;;;7.05;3.92;;;13.40;99.90;;;;;;5011200;28;20018;-72
2021/04/16 13:24:09;;;;;;;4.70;3.67;;;13.30;99.90;;;;;;5011587;28;20033;-71
2021/04/16 13:26:36;;;;;;;6.55;3.25;;;13.30;99.90;;;;;;5011933;28;20032;-70
2021/04/16 13:29:02;;;;;;;8.32;3.63;;;13.50;99.90;;;;;;5011121;28;20032;-72
2021/04/16 13:31:34;;;;;;;5.13;3.67;;;13.50;99.90;;;;;;5010879;28;20433;-72
2021/04/16 13:34:02;;;;;;;12.88;2.90;;;13.50;99.90;;;;;;5011179;28;20410;-72
2021/04/16 13:36:30;;;;;;;5.15;3.58;;;13.60;99.90;;;;;;5010988;28;20038;-73
2021/04/16 13:38:57;;;;;;;6.00;3.47;;;13.40;99.90;;;;;;5011193;28;20032;-72
2021/04/16 13:41:23;;;;;;;5.25;2.72;;;13.40;99.90;;;;;;5010926;28;20041;-74
2021/04/16 13:43:50;;;;;;;5.13;2.75;;;13.40;99.90;;;;;;5023983;28;20479;-70
2021/04/16 13:46:20;;;;;;;4.03;2.85;;;13.40;99.90;;;;;;5030914;28;20459;-72
2021/04/16 13:48:48;;;;;;;10.68;4.72;;;13.30;99.90;;;;;;5030956;28;20029;-72
2021/04/16 13:51:16;;;;;;;3.83;2.85;;;13.50;99.90;;;;;;5030714;28;20033;-74
2021/04/16 13:53:42;;;;;;;4.85;3.63;;;13.50;99.90;;;;;;5030741;28;20033;-72
2021/04/16 13:56:08;;;;;;;5.18;3.13;;;13.60;99.90;;;;;;5030897;28;20029;-73
2021/04/16 13:58:34;;;;;;;7.30;3.53;;;13.70;99.90;;;;;;5030932;28;20097;-73
2021/04/16 14:01:00;;;;;;;5.88;2.78;;;13.80;99.90;;;;;;5030049;28;20490;-73
2021/04/16 14:03:34;;;;;;;8.30;3.03;;;13.70;99.90;;;;;;5030411;28;20025;-71
2021/04/16 14:06:23;;;;;;;10.20;3.33;;;13.70;99.90;;;;;;5031708;28;20472;-74
2021/04/16 14:08:59;;;;;;;6.78;4.15;;;13.60;99.90;;;;;;5031359;28;20110;-71
2021/04/16 14:11:26;;;;;;;6.70;3.95;;;13.70;99.90;;;;;;5030950;28;20021;-73
2021/04/16 14:13:52;;;;;;;5.35;3.42;;;13.70;99.90;;;;;;5031144;28;20017;-71
2021/04/16 14:16:34;;;;;;;10.40;3.35;;;13.60;99.90;;;;;;5030673;28;20049;-71
2021/04/16 14:19:05;;;;;;;7.88;3.30;;;13.50;99.90;;;;;;5030697;28;20028;-71
2021/04/16 14:21:36;;;;;;;8.90;3.97;;;13.70;99.90;;;;;;5030550;28;20099;-73
2021/04/16 14:24:03;;;;;;;3.63;2.88;;;13.60;99.90;;;;;;5031872;28;20021;-72
2021/04/16 14:26:29;;;;;;;6.78;3.42;;;13.60;99.90;;;;;;5031131;28;20056;-72
2021/04/16 14:28:54;;;;;;;6.63;3.22;;;13.70;99.90;;;;;;5030983;28;20025;-71
2021/04/16 14:31:20;;;;;;;3.95;3.28;;;13.70;99.90;;;;;;5029979;28;20017;-70
2021/04/16 14:33:46;;;;;;;9.75;3.17;;;13.60;99.90;;;;;;5030279;28;20400;-72
2021/04/16 14:36:13;;;;;;;4.97;3.13;;;13.60;99.90;;;;;;5030196;28;20112;-74
2021/04/16 14:38:39;;;;;;;8.88;2.72;;;13.50;99.90;;;;;;5030341;28;20022;-73
2021/04/16 14:41:07;;;;;;;4.88;3.45;;;13.70;99.90;;;;;;5030323;28;20101;-71
2021/04/16 14:43:34;;;;;;;7.20;3.25;;;13.60;99.90;;;;;;5029969;28;20025;-72
2021/04/16 14:46:00;;;;;;;8.15;3.53;;;13.70;99.90;;;;;;5029969;28;20534;-71
2021/04/16 14:48:28;;;;;;;10.82;4.47;;;13.60;99.90;;;;;;5029877;28;20033;-74
2021/04/16 14:51:02;;;;;;;9.65;3.28;;;13.60;99.90;;;;;;5029856;28;20097;-71
2021/04/16 14:53:48;;;;;;;7.13;4.78;;;13.70;99.90;;;;;;5029900;28;20510;-73
2021/04/16 14:56:15;;;;;;;7.20;4.75;;;13.70;99.90;;;;;;5029445;28;20034;-73
2021/04/16 14:58:50;;;;;;;5.05;2.88;;;13.90;99.90;;;;;;5030137;28;20045;-74
2021/04/16 15:01:17;;;;;;;6.50;3.08;;;13.90;99.90;;;;;;5029606;28;20113;-72
2021/04/16 15:03:44;;;;;;;10.07;2.83;;;13.70;99.90;;;;;;5029956;28;20044;-74
2021/04/16 15:06:18;;;;;;;10.35;3.38;;;13.80;99.90;;;;;;5029746;28;20049;-74
2021/04/16 15:08:55;;;;;;;11.75;4.32;;;13.70;99.90;;;;;;5029841;28;20033;-72
2021/04/16 15:11:23;;;;;;;5.63;3.72;;;13.60;99.90;;;;;;5029562;28;20057;-73
2021/04/16 15:13:48;;;;;;;5.03;4.53;;;13.70;99.90;;;;;;5032622;28;20025;-72
2021/04/16 15:16:18;;;;;;;4.32;3.35;;;13.70;99.90;;;;;;5033307;28;20533;-74
2021/04/16 15:18:44;;;;;;;9.25;3.58;;;13.70;99.90;;;;;;5006401;28;20405;-74